createdAt,value
2022-09-02T00:00:08.863Z,589.78
2022-09-02T00:02:36.609Z,592.13
2022-09-02T00:05:06.718Z,619.20
2022-09-02T00:07:34.441Z,607.35
2022-09-02T00:10:02.050Z,614.88
2022-09-02T00:12:29.673Z,607.53
2022-09-02T00:14:57.218Z,605.90
2022-09-02T00:17:25.208Z,590.45
2022-09-02T00:19:56.194Z,584.85
2022-09-02T00:22:24.956Z,595.83
2022-09-02T00:24:54.500Z,598.22
2022-09-02T00:27:23.268Z,598.92
2022-09-02T00:29:51.095Z,595.13
2022-09-02T00:32:19.523Z,598.33
2022-09-02T00:34:47.092Z,595.40
2022-09-02T00:37:15.342Z,601.13
2022-09-02T00:39:43.420Z,587.10
2022-09-02T00:42:12.106Z,590.42
2022-09-02T00:44:40.072Z,593.92
2022-09-02T00:47:08.524Z,584.80
2022-09-02T00:49:40.495Z,588.60
2022-09-02T00:52:30.310Z,592.90
2022-09-02T00:55:16.646Z,590.88
2022-09-02T00:58:00.904Z,589.90
2022-09-02T01:00:34.698Z,590.28
2022-09-02T01:03:05.924Z,589.40
2022-09-02T01:05:40.669Z,600.70
2022-09-02T01:08:19.687Z,595.03
2022-09-02T01:10:48.339Z,602.45
2022-09-02T01:13:20.689Z,605.70
2022-09-02T01:15:56.455Z,601.35
2022-09-02T01:18:30.990Z,596.80
2022-09-02T01:21:01.417Z,589.00
2022-09-02T01:23:32.377Z,589.97
2022-09-02T01:26:05.598Z,594.05
2022-09-02T01:28:35.027Z,596.90
2022-09-02T01:31:03.105Z,599.08
2022-09-02T01:33:31.740Z,592.85
2022-09-02T01:36:00.000Z,606.38
2022-09-02T01:38:28.321Z,584.90
2022-09-02T01:40:55.905Z,592.53
2022-09-02T01:43:25.933Z,590.25
2022-09-02T01:45:57.267Z,607.47
2022-09-02T01:48:27.478Z,590.53
2022-09-02T01:50:59.797Z,605.13
2022-09-02T01:53:29.926Z,591.78
2022-09-02T01:55:58.919Z,612.03
2022-09-02T01:58:29.454Z,598.35
2022-09-02T02:00:57.965Z,603.92
2022-09-02T02:03:26.236Z,592.72
2022-09-02T02:05:58.838Z,607.30
2022-09-02T02:08:28.121Z,603.78
2022-09-02T02:10:58.544Z,589.58
2022-09-02T02:13:26.178Z,603.78
2022-09-02T02:15:54.181Z,607.38
2022-09-02T02:18:21.936Z,600.10
2022-09-02T02:20:50.151Z,594.75
2022-09-02T02:23:18.340Z,590.92
2022-09-02T02:25:46.951Z,599.67
2022-09-02T02:28:15.150Z,594.22
2022-09-02T02:30:43.680Z,591.75
2022-09-02T02:33:12.514Z,581.20
2022-09-02T02:35:41.256Z,591.63
2022-09-02T02:38:10.312Z,607.10
2022-09-02T02:40:42.358Z,608.72
2022-09-02T02:43:10.771Z,607.53
2022-09-02T02:45:39.214Z,602.20
2022-09-02T02:48:07.863Z,586.77
2022-09-02T02:50:36.463Z,600.13
2022-09-02T02:53:04.165Z,585.28
2022-09-02T02:55:32.292Z,609.63
2022-09-02T02:58:01.625Z,592.28
2022-09-02T03:00:32.523Z,580.10
2022-09-02T03:03:05.527Z,605.80
2022-09-02T03:05:37.794Z,602.20
2022-09-02T03:08:10.245Z,615.17
2022-09-02T03:10:42.217Z,622.42
2022-09-02T03:13:12.149Z,594.90
2022-09-02T03:15:40.936Z,597.87
2022-09-02T03:18:09.546Z,597.33
2022-09-02T03:20:37.342Z,590.58
2022-09-02T03:23:08.501Z,598.42
2022-09-02T03:25:37.596Z,590.35
2022-09-02T03:28:16.328Z,598.13
2022-09-02T03:30:46.820Z,582.92
2022-09-02T03:33:16.840Z,626.47
2022-09-02T03:35:47.202Z,611.30
2022-09-02T03:38:16.300Z,588.75
2022-09-02T03:40:46.276Z,586.28
2022-09-02T03:43:15.056Z,567.05
2022-09-02T03:45:44.365Z,530.25
2022-09-02T03:48:15.917Z,552.70
2022-09-02T03:50:47.349Z,554.45
2022-09-02T03:53:20.524Z,540.58
2022-09-02T03:55:55.139Z,561.15
2022-09-02T03:58:25.940Z,569.72
2022-09-02T04:00:55.823Z,580.33
2022-09-02T04:03:26.231Z,571.00
2022-09-02T04:05:54.520Z,565.78
2022-09-02T04:08:26.064Z,556.35
2022-09-02T04:10:56.654Z,563.70
2022-09-02T04:13:24.693Z,558.08
2022-09-02T04:15:52.723Z,572.35
2022-09-02T04:18:23.198Z,590.80
2022-09-02T04:20:53.020Z,552.03
2022-09-02T04:23:21.852Z,497.13
2022-09-02T04:25:50.198Z,517.33
2022-09-02T04:28:19.502Z,525.10
2022-09-02T04:30:49.618Z,528.87
2022-09-02T04:33:18.076Z,567.22
2022-09-02T04:35:52.283Z,537.10
2022-09-02T04:38:21.367Z,540.80
2022-09-02T04:40:49.126Z,554.05
2022-09-02T04:43:19.064Z,531.78
2022-09-02T04:45:48.800Z,531.05
2022-09-02T04:48:19.262Z,558.53
2022-09-02T04:50:49.297Z,538.45
2022-09-02T04:53:18.966Z,545.38
2022-09-02T04:55:46.874Z,544.88
2022-09-02T04:58:16.763Z,530.78
2022-09-02T05:00:47.208Z,524.30
2022-09-02T05:03:16.710Z,512.43
2022-09-02T05:05:48.254Z,454.23
2022-09-02T05:08:17.647Z,473.10
2022-09-02T05:10:48.361Z,454.42
2022-09-02T05:13:16.086Z,450.55
2022-09-02T05:15:46.699Z,426.73
2022-09-02T05:18:18.408Z,530.83
2022-09-02T05:20:49.769Z,488.15
2022-09-02T05:23:24.872Z,492.10
2022-09-02T05:25:53.344Z,473.70
2022-09-02T05:28:25.081Z,349.58
2022-09-02T05:30:58.767Z,467.63
2022-09-02T05:33:27.888Z,466.42
2022-09-02T05:35:56.029Z,547.08
2022-09-02T05:38:25.920Z,485.92
2022-09-02T05:40:54.309Z,472.80
2022-09-02T05:43:22.976Z,454.50
2022-09-02T05:45:50.802Z,488.48
2022-09-02T05:48:37.656Z,503.27
2022-09-02T05:51:06.919Z,518.03
2022-09-02T05:53:36.064Z,522.05
2022-09-02T05:56:05.420Z,433.88
2022-09-02T05:58:34.828Z,477.02
2022-09-02T06:01:14.470Z,505.02
2022-09-02T06:03:42.520Z,485.23
2022-09-02T06:06:11.136Z,441.17
2022-09-02T06:08:41.377Z,353.45
2022-09-02T06:11:12.212Z,411.98
2022-09-02T06:13:42.480Z,400.38
2022-09-02T06:16:15.000Z,325.43
2022-09-02T06:18:44.751Z,250.52
2022-09-02T06:21:14.244Z,326.75
2022-09-02T06:23:45.994Z,195.25
2022-09-02T06:26:16.776Z,245.02
2022-09-02T06:28:46.530Z,204.73
2022-09-02T06:31:20.391Z,180.32
2022-09-02T06:33:54.393Z,280.55
2022-09-02T06:36:28.350Z,166.88
2022-09-02T06:38:59.976Z,205.98
2022-09-02T06:41:32.241Z,433.50
2022-09-02T06:44:07.156Z,209.02
2022-09-02T06:46:43.212Z,280.13
2022-09-02T06:49:16.580Z,268.17
2022-09-02T06:51:50.368Z,248.23
2022-09-02T06:54:21.501Z,330.42
2022-09-02T06:56:54.395Z,254.60
2022-09-02T06:59:27.181Z,194.90
2022-09-02T07:01:59.237Z,403.27
2022-09-02T07:04:46.812Z,312.30
2022-09-02T07:07:19.110Z,305.15
2022-09-02T07:09:55.575Z,268.13
2022-09-02T07:12:24.015Z,250.07
2022-09-02T07:14:57.069Z,266.50
2022-09-02T07:17:31.039Z,293.65
2022-09-02T07:20:05.786Z,306.38
2022-09-02T07:22:39.738Z,297.37
2022-09-02T07:25:10.816Z,296.02
2022-09-02T07:27:38.848Z,363.33
2022-09-02T07:30:07.177Z,190.52
2022-09-02T07:32:38.913Z,166.98
2022-09-02T07:35:09.289Z,197.77
2022-09-02T07:37:37.481Z,228.55
2022-09-02T07:40:10.431Z,302.42
2022-09-02T07:42:39.225Z,122.00
2022-09-02T07:45:07.272Z,149.77
2022-09-02T07:47:36.798Z,170.27
2022-09-02T07:50:22.195Z,117.80
2022-09-02T07:52:59.122Z,123.97
2022-09-02T07:55:31.196Z,112.40
2022-09-02T07:57:59.521Z,83.85
2022-09-02T08:00:28.039Z,48.72
2022-09-02T08:03:01.884Z,88.45
2022-09-02T08:05:36.377Z,80.40
2022-09-02T08:08:04.891Z,86.82
2022-09-02T08:10:34.347Z,103.30
2022-09-02T08:13:02.456Z,14.63
2022-09-02T08:15:30.717Z,91.85
2022-09-02T08:18:00.432Z,49.28
2022-09-02T08:20:30.515Z,143.05
2022-09-02T08:23:10.806Z,208.82
2022-09-02T08:25:46.357Z,177.15
2022-09-02T08:28:14.577Z,228.55
2022-09-02T08:30:42.294Z,334.98
2022-09-02T08:33:09.841Z,270.38
2022-09-02T08:35:38.050Z,181.73
2022-09-02T08:38:06.063Z,209.65
2022-09-02T08:40:44.595Z,242.07
2022-09-02T08:43:40.229Z,342.45
2022-09-02T08:46:12.168Z,169.38
2022-09-02T08:48:59.496Z,162.52
2022-09-02T08:51:41.511Z,220.70
2022-09-02T08:54:17.069Z,140.38
2022-09-02T08:56:44.737Z,206.02
2022-09-02T08:59:15.901Z,165.35
2022-09-02T09:01:52.982Z,168.88
2022-09-02T09:04:47.178Z,261.00
2022-09-02T09:07:33.716Z,299.98
2022-09-02T09:10:19.088Z,101.47
2022-09-02T09:13:08.519Z,157.30
2022-09-02T09:15:50.881Z,583.90
2022-09-02T09:18:24.729Z,498.40
2022-09-02T09:20:52.232Z,416.80
2022-09-02T09:23:34.285Z,351.42
2022-09-02T09:26:27.987Z,459.33
2022-09-02T09:28:56.521Z,548.33
2022-09-02T09:31:29.971Z,605.67
2022-09-02T09:34:03.879Z,367.77
2022-09-02T09:36:51.272Z,299.90
2022-09-02T09:39:32.863Z,289.73
2022-09-02T09:42:03.350Z,448.60
2022-09-02T09:44:30.772Z,365.15
2022-09-02T09:47:04.332Z,289.00
2022-09-02T09:49:33.490Z,240.48
2022-09-02T09:52:01.146Z,241.52
2022-09-02T09:54:28.804Z,205.32
2022-09-02T09:57:13.236Z,176.70
2022-09-02T09:59:45.699Z,111.13
2022-09-02T10:02:21.197Z,117.93
2022-09-02T10:04:49.170Z,292.23
2022-09-02T10:07:35.385Z,133.98
2022-09-02T10:10:30.817Z,43.58
2022-09-02T10:13:02.023Z,34.72
2022-09-02T10:15:34.171Z,76.88
2022-09-02T10:18:35.064Z,6.20
2022-09-02T10:21:15.591Z,121.95
2022-09-02T10:24:01.393Z,84.18
2022-09-02T10:26:49.523Z,146.07
2022-09-02T10:29:17.176Z,82.88
2022-09-02T10:32:14.215Z,65.72
2022-09-02T10:35:07.169Z,18.50
2022-09-02T10:37:57.845Z,19.90
2022-09-02T10:40:43.277Z,28.02
2022-09-02T10:43:23.592Z,72.78
2022-09-02T10:45:58.217Z,54.50
2022-09-02T10:48:43.904Z,8.20
2022-09-02T10:51:37.417Z,37.55
2022-09-02T10:54:20.235Z,89.60
2022-09-02T10:57:07.695Z,16.85
2022-09-02T10:59:49.946Z,34.53
2022-09-02T11:02:28.381Z,9.85
2022-09-02T11:05:07.889Z,8.10
2022-09-02T11:07:42.045Z,21.58
2022-09-02T11:10:16.019Z,42.03
2022-09-02T11:13:12.087Z,116.32
2022-09-02T11:16:01.471Z,33.88
2022-09-02T11:18:42.745Z,9.02
2022-09-02T11:21:21.016Z,5.63
2022-09-02T11:24:02.026Z,4.15
2022-09-02T11:26:38.401Z,5.70
2022-09-02T11:29:15.486Z,3.95
2022-09-02T11:32:01.687Z,3.58
2022-09-02T11:34:38.408Z,5.00
2022-09-02T11:37:09.048Z,3.80
2022-09-02T11:40:17.113Z,9.38
2022-09-02T11:42:56.170Z,10.10
2022-09-02T11:45:57.016Z,3.05
2022-09-02T11:48:46.963Z,3.87
2022-09-02T11:51:17.440Z,4.30
2022-09-02T11:53:47.249Z,5.90
2022-09-02T11:56:23.296Z,5.03
2022-09-02T11:58:53.270Z,2.95
2022-09-02T12:01:25.739Z,2.90
2022-09-02T12:07:08.607Z,4.80
2022-09-02T12:09:56.746Z,4.57
2022-09-02T12:12:36.720Z,5.90
2022-09-02T12:15:07.543Z,2.92
2022-09-02T12:17:39.997Z,4.85
2022-09-02T12:20:43.293Z,4.57
2022-09-02T12:23:57.049Z,7.25
2022-09-02T12:26:36.518Z,5.75
2022-09-02T12:29:33.012Z,7.97
2022-09-02T12:32:01.029Z,9.15
2022-09-02T12:34:31.169Z,3.00
2022-09-02T12:37:00.489Z,3.10
2022-09-02T12:39:28.199Z,3.42
2022-09-02T12:42:07.228Z,3.58
2022-09-02T12:45:03.045Z,7.90
2022-09-02T12:48:13.156Z,5.35
2022-09-02T12:50:44.036Z,3.97
2022-09-02T12:53:23.832Z,5.60
2022-09-02T12:56:01.927Z,6.78
2022-09-02T12:58:34.699Z,4.65
2022-09-02T13:01:13.994Z,4.70
2022-09-02T13:04:13.466Z,4.07
2022-09-02T13:06:56.194Z,4.70
2022-09-02T13:09:54.426Z,4.45
2022-09-02T13:12:47.933Z,3.40
2022-09-02T13:15:30.604Z,4.95
2022-09-02T13:18:35.152Z,3.55
2022-09-02T13:21:22.195Z,2.95
2022-09-02T13:24:14.693Z,4.28
2022-09-02T13:27:07.691Z,6.05
2022-09-02T13:30:19.494Z,2.20
2022-09-02T13:32:56.862Z,3.90
2022-09-02T13:35:27.320Z,2.70
2022-09-02T13:37:59.897Z,6.10
2022-09-02T13:40:38.012Z,4.43
2022-09-02T13:43:14.701Z,4.55
2022-09-02T13:45:44.166Z,3.77
2022-09-02T13:48:20.796Z,2.65
2022-09-02T13:50:51.559Z,12.37
2022-09-02T13:53:45.821Z,7.40
2022-09-02T13:56:17.703Z,4.63
2022-09-02T13:58:53.569Z,3.13
2022-09-02T14:01:36.870Z,3.53
2022-09-02T14:04:11.578Z,4.57
2022-09-02T14:06:43.210Z,7.22
2022-09-02T14:09:35.763Z,3.85
2022-09-02T14:12:06.701Z,6.43
2022-09-02T14:14:35.046Z,6.00
2022-09-02T14:17:37.442Z,5.15
2022-09-02T14:20:19.164Z,5.37
2022-09-02T14:22:55.026Z,4.63
2022-09-02T14:25:27.217Z,6.18
2022-09-02T14:27:58.157Z,5.10
2022-09-02T14:30:38.497Z,2.90
2022-09-02T14:33:26.485Z,2.60
2022-09-02T14:36:08.658Z,3.35
2022-09-02T14:38:50.455Z,5.20
2022-09-02T14:41:17.894Z,4.65
2022-09-02T14:43:47.085Z,5.20
2022-09-02T14:46:27.215Z,3.88
2022-09-02T14:49:07.394Z,3.28
2022-09-02T14:51:44.989Z,2.80
2022-09-02T14:54:32.656Z,5.57
2022-09-02T14:57:00.641Z,3.63
2022-09-02T14:59:28.192Z,3.33
2022-09-02T15:01:58.507Z,5.88
2022-09-02T15:04:26.433Z,2.03
2022-09-02T15:06:54.080Z,2.90
2022-09-02T15:09:21.657Z,5.28
2022-09-02T15:11:53.415Z,5.30
2022-09-02T15:14:21.107Z,3.53
2022-09-02T15:16:48.654Z,5.72
2022-09-02T15:19:16.114Z,4.00
2022-09-02T15:21:43.857Z,3.33
2022-09-02T15:24:11.452Z,3.92
2022-09-02T15:26:39.007Z,4.68
2022-09-02T15:29:06.823Z,3.13
2022-09-02T15:31:36.602Z,2.33
2022-09-02T15:34:04.293Z,2.53
2022-09-02T15:36:31.963Z,7.00
2022-09-02T15:39:00.920Z,3.78
2022-09-02T15:41:31.577Z,4.85
2022-09-02T15:44:01.621Z,5.32
2022-09-02T15:46:31.308Z,4.70
2022-09-02T15:49:07.131Z,5.38
2022-09-02T15:51:36.104Z,5.63
2022-09-02T15:54:06.732Z,2.65
2022-09-02T15:56:37.616Z,4.22
2022-09-02T15:59:11.059Z,3.38
2022-09-02T16:01:41.402Z,4.50
2022-09-02T16:04:09.525Z,3.88
2022-09-02T16:06:40.349Z,5.03
2022-09-02T16:09:13.155Z,4.65
2022-09-02T16:11:43.743Z,3.92
2022-09-02T16:14:11.859Z,4.35
2022-09-02T16:16:39.818Z,7.05
2022-09-02T16:19:08.295Z,4.07
2022-09-02T16:21:39.199Z,5.55
2022-09-02T16:24:08.624Z,2.17
2022-09-02T16:26:41.139Z,3.20
2022-09-02T16:29:11.153Z,3.23
2022-09-02T16:31:40.945Z,8.85
2022-09-02T16:34:16.649Z,3.53
2022-09-02T16:36:47.041Z,3.92
2022-09-02T16:39:15.545Z,3.67
2022-09-02T16:41:45.730Z,5.90
2022-09-02T16:44:16.212Z,32.08
2022-09-02T16:46:46.088Z,36.90
2022-09-02T16:49:18.360Z,42.45
2022-09-02T16:51:47.602Z,93.20
2022-09-02T16:54:17.494Z,29.95
2022-09-02T16:56:49.522Z,22.30
2022-09-02T16:59:19.266Z,39.72
2022-09-02T17:01:46.921Z,10.20
2022-09-02T17:04:14.651Z,4.85
2022-09-02T17:06:42.575Z,13.70
2022-09-02T17:09:10.241Z,42.90
2022-09-02T17:11:41.423Z,53.03
2022-09-02T17:14:15.224Z,38.72
2022-09-02T17:16:46.333Z,32.42
2022-09-02T17:19:20.881Z,31.92
2022-09-02T17:21:52.305Z,35.43
2022-09-02T17:24:23.981Z,67.63
2022-09-02T17:26:55.852Z,142.70
2022-09-02T17:29:50.610Z,131.10
2022-09-02T17:32:19.500Z,109.65
2022-09-02T17:34:49.914Z,107.50
2022-09-02T17:37:18.340Z,109.20
2022-09-02T17:39:46.787Z,115.57
2022-09-02T17:42:15.304Z,99.07
2022-09-02T17:44:43.317Z,75.60
2022-09-02T17:47:16.397Z,66.90
2022-09-02T17:49:44.642Z,98.35
2022-09-02T17:52:15.587Z,84.35
2022-09-02T17:54:43.682Z,66.07
2022-09-02T17:57:50.517Z,62.50
2022-09-02T18:00:22.415Z,65.50
2022-09-02T18:03:22.388Z,136.50
2022-09-02T18:05:54.370Z,94.07
2022-09-02T18:08:52.710Z,68.70
2022-09-02T18:11:22.600Z,59.55
2022-09-02T18:14:15.181Z,62.85
2022-09-02T18:17:14.296Z,65.95
2022-09-02T18:20:11.054Z,81.38
2022-09-02T18:23:25.338Z,166.98
2022-09-02T18:26:02.719Z,92.30
2022-09-02T18:28:54.111Z,126.70
2022-09-02T18:32:06.552Z,65.78
2022-09-02T18:34:46.756Z,151.32
2022-09-02T18:37:51.091Z,102.07
2022-09-02T18:40:52.023Z,69.20
2022-09-02T18:43:35.076Z,79.32
2022-09-02T18:46:05.261Z,101.18
2022-09-02T18:48:36.711Z,76.78
2022-09-02T18:51:35.750Z,85.03
2022-09-02T18:54:15.208Z,153.45
2022-09-02T18:56:55.799Z,118.07
2022-09-02T18:59:33.276Z,101.13
2022-09-02T19:02:06.911Z,127.78
2022-09-02T19:04:37.070Z,181.10
2022-09-02T19:07:24.548Z,138.68
2022-09-02T19:09:52.613Z,116.75
2022-09-02T19:12:21.513Z,153.23
2022-09-02T19:14:51.092Z,121.70
2022-09-02T19:17:19.180Z,144.93
2022-09-02T19:19:48.238Z,229.10
2022-09-02T19:22:22.071Z,196.05
2022-09-02T19:24:57.305Z,252.70
2022-09-02T19:27:30.878Z,218.02
2022-09-02T19:30:15.320Z,238.80
2022-09-02T19:32:47.841Z,156.43
2022-09-02T19:35:19.135Z,163.30
2022-09-02T19:37:51.522Z,204.80
2022-09-02T19:40:26.438Z,201.48
2022-09-02T19:42:55.268Z,194.73
2022-09-02T19:45:23.336Z,169.85
2022-09-02T19:48:08.420Z,226.73
2022-09-02T19:50:45.046Z,150.30
2022-09-02T19:53:28.005Z,471.20
2022-09-02T19:55:57.224Z,207.25
2022-09-02T19:58:26.357Z,262.42
2022-09-02T20:00:56.155Z,371.20
2022-09-02T20:03:24.155Z,525.08
2022-09-02T20:05:55.334Z,603.22
2022-09-02T20:08:29.350Z,631.80
2022-09-02T20:11:01.007Z,653.17
2022-09-02T20:13:30.677Z,653.95
2022-09-02T20:15:59.278Z,653.08
2022-09-02T20:18:27.484Z,638.17
2022-09-02T20:20:58.274Z,646.53
2022-09-02T20:23:28.401Z,631.20
2022-09-02T20:26:24.139Z,653.63
2022-09-02T20:29:12.398Z,648.90
2022-09-02T20:32:02.793Z,652.55
2022-09-02T20:35:12.687Z,654.47
2022-09-02T20:38:04.633Z,655.17
2022-09-02T20:40:54.549Z,660.30
2022-09-02T20:43:44.192Z,654.53
2022-09-02T20:47:13.110Z,649.95
2022-09-02T20:50:10.025Z,650.10
2022-09-02T20:53:05.022Z,652.90
2022-09-02T20:55:45.062Z,650.60
2022-09-02T20:58:41.687Z,646.85
2022-09-02T21:01:11.807Z,649.85
2022-09-02T21:03:58.721Z,643.63
2022-09-02T21:06:31.035Z,640.55
2022-09-02T21:09:30.169Z,650.63
2022-09-02T21:12:03.917Z,645.88
2022-09-02T21:14:47.005Z,649.60
2022-09-02T21:17:44.257Z,649.20
2022-09-02T21:20:24.129Z,648.58
2022-09-02T21:23:00.001Z,644.70
2022-09-02T21:26:10.532Z,651.50
2022-09-02T21:28:45.428Z,644.42
2022-09-02T21:31:23.797Z,644.33
2022-09-02T21:33:55.605Z,639.50
2022-09-02T21:36:29.708Z,646.83
2022-09-02T21:39:03.964Z,649.58
2022-09-02T21:41:43.119Z,639.83
2022-09-02T21:44:46.603Z,641.58
2022-09-02T21:47:28.709Z,643.65
2022-09-02T21:50:22.334Z,633.65
2022-09-02T21:52:50.729Z,633.58
2022-09-02T21:55:46.880Z,632.35
2022-09-02T21:58:55.009Z,641.40
2022-09-02T22:01:31.728Z,619.77
2022-09-02T22:04:25.041Z,626.90
2022-09-02T22:07:18.897Z,613.67
2022-09-02T22:10:02.868Z,624.63
2022-09-02T22:12:35.184Z,615.22
2022-09-02T22:15:34.040Z,620.92
2022-09-02T22:18:31.983Z,604.42
2022-09-02T22:21:08.173Z,600.33
2022-09-02T22:23:36.316Z,607.15
2022-09-02T22:26:21.544Z,625.17
2022-09-02T22:28:53.927Z,610.28
2022-09-02T22:31:27.255Z,625.17
2022-09-02T22:33:56.001Z,614.22
2022-09-02T22:37:02.580Z,617.70
2022-09-02T22:39:36.242Z,600.08
2022-09-02T22:42:22.325Z,598.58
2022-09-02T22:45:41.615Z,586.13
2022-09-02T22:48:33.912Z,597.97
2022-09-02T22:51:30.132Z,591.55
2022-09-02T22:53:57.632Z,601.10
2022-09-02T22:56:37.212Z,580.90
2022-09-02T22:59:37.135Z,583.03
2022-09-02T23:02:59.763Z,557.33
2022-09-02T23:05:47.050Z,556.72
2022-09-02T23:08:23.406Z,579.23
2022-09-02T23:11:28.086Z,562.17
2022-09-02T23:14:14.453Z,587.05
2022-09-02T23:16:59.548Z,584.38
2022-09-02T23:19:56.360Z,579.55
2022-09-02T23:22:46.484Z,573.10
2022-09-02T23:25:28.186Z,574.92
2022-09-02T23:28:32.422Z,579.55
2022-09-02T23:31:06.928Z,580.42
2022-09-02T23:33:43.200Z,582.80
2022-09-02T23:36:30.968Z,589.05
2022-09-02T23:39:31.384Z,592.63
2022-09-02T23:42:02.721Z,597.38
2022-09-02T23:44:31.344Z,582.50
2022-09-02T23:47:17.188Z,582.03
2022-09-02T23:50:10.348Z,599.45
2022-09-02T23:52:57.708Z,588.20
2022-09-02T23:55:45.440Z,595.22
2022-09-02T23:58:41.354Z,588.17
